createdAt,value
2023-12-19T00:01:53.782Z,15.40
2023-12-19T00:04:20.360Z,16.00
2023-12-19T00:06:46.797Z,15.77
2023-12-19T00:09:13.456Z,18.03
2023-12-19T00:11:39.932Z,16.83
2023-12-19T00:14:07.536Z,17.53
2023-12-19T00:16:34.785Z,18.10
2023-12-19T00:19:01.442Z,15.73
2023-12-19T00:21:27.926Z,16.47
2023-12-19T00:23:54.785Z,18.50
2023-12-19T00:26:22.875Z,20.60
2023-12-19T00:28:49.431Z,15.93
2023-12-19T00:31:23.479Z,21.17
2023-12-19T00:33:50.439Z,18.50
2023-12-19T00:36:24.130Z,15.93
2023-12-19T00:38:51.164Z,18.77
2023-12-19T00:41:18.204Z,20.50
2023-12-19T00:43:45.468Z,18.03
2023-12-19T00:46:12.289Z,18.40
2023-12-19T00:48:39.206Z,13.70
2023-12-19T00:51:10.759Z,16.10
2023-12-19T00:53:37.767Z,13.93
2023-12-19T00:56:08.512Z,16.20
2023-12-19T00:58:36.752Z,14.93
2023-12-19T01:01:04.305Z,15.77
2023-12-19T01:03:30.981Z,13.20
2023-12-19T01:05:57.453Z,15.23
2023-12-19T01:08:23.920Z,14.53
2023-12-19T01:10:50.466Z,14.70
2023-12-19T01:13:16.945Z,14.40
2023-12-19T01:15:43.378Z,14.83
2023-12-19T01:18:09.990Z,14.23
2023-12-19T01:20:36.494Z,14.60
2023-12-19T01:23:03.002Z,13.10
2023-12-19T01:25:29.406Z,13.77
2023-12-19T01:27:56.103Z,12.27
2023-12-19T01:30:22.611Z,14.50
2023-12-19T01:32:50.163Z,14.90
2023-12-19T01:35:16.633Z,16.50
2023-12-19T01:37:43.807Z,19.50
2023-12-19T01:40:10.688Z,16.50
2023-12-19T01:42:37.218Z,16.60
2023-12-19T01:45:10.751Z,18.63
2023-12-19T01:47:44.842Z,24.60
2023-12-19T01:50:13.615Z,27.77
2023-12-19T01:52:44.397Z,19.17
2023-12-19T01:55:11.645Z,19.20
2023-12-19T01:57:39.234Z,20.27
2023-12-19T02:00:06.508Z,21.30
2023-12-19T02:02:33.281Z,22.37
2023-12-19T02:05:00.280Z,20.80
2023-12-19T02:07:26.843Z,22.40
2023-12-19T02:09:53.579Z,19.53
2023-12-19T02:12:20.650Z,20.90
2023-12-19T02:14:50.008Z,21.10
2023-12-19T02:17:18.084Z,19.63
2023-12-19T02:19:48.614Z,19.20
2023-12-19T02:22:15.740Z,27.27
2023-12-19T02:24:42.763Z,19.93
2023-12-19T02:27:10.572Z,20.37
2023-12-19T02:29:37.109Z,17.87
2023-12-19T02:32:04.402Z,22.00
2023-12-19T02:34:31.616Z,20.30
2023-12-19T02:36:58.219Z,23.17
2023-12-19T02:39:24.865Z,17.70
2023-12-19T02:41:51.307Z,18.13
2023-12-19T02:44:17.723Z,18.20
2023-12-19T02:46:44.137Z,28.47
2023-12-19T02:49:10.710Z,22.00
2023-12-19T02:51:37.339Z,16.67
2023-12-19T02:54:03.942Z,17.30
2023-12-19T02:56:31.712Z,21.27
2023-12-19T02:58:58.138Z,14.77
2023-12-19T03:01:24.729Z,15.97
2023-12-19T03:03:51.360Z,17.30
2023-12-19T03:06:17.861Z,18.30
2023-12-19T03:08:48.563Z,21.40
2023-12-19T03:11:16.096Z,19.90
2023-12-19T03:13:42.566Z,26.90
2023-12-19T03:16:09.058Z,19.57
2023-12-19T03:18:35.920Z,20.10
2023-12-19T03:21:02.455Z,18.47
2023-12-19T03:23:29.493Z,15.30
2023-12-19T03:25:56.111Z,18.47
2023-12-19T03:28:22.561Z,18.70
2023-12-19T03:30:49.116Z,19.17
2023-12-19T03:33:15.775Z,15.30
2023-12-19T03:35:42.184Z,18.07
2023-12-19T03:38:08.954Z,20.90
2023-12-19T03:40:37.500Z,15.80
2023-12-19T03:43:04.626Z,15.73
2023-12-19T03:45:31.123Z,17.07
2023-12-19T03:47:57.698Z,16.07
2023-12-19T03:50:24.181Z,16.23
2023-12-19T03:52:50.934Z,15.50
2023-12-19T03:55:17.630Z,13.80
2023-12-19T03:57:44.136Z,15.70
2023-12-19T04:00:11.337Z,15.50
2023-12-19T04:02:37.961Z,14.37
2023-12-19T04:05:05.109Z,13.43
2023-12-19T04:07:33.445Z,13.47
2023-12-19T04:10:00.321Z,12.67
2023-12-19T04:12:26.970Z,12.83
2023-12-19T04:14:53.681Z,14.13
2023-12-19T04:17:20.959Z,15.10
2023-12-19T04:19:47.401Z,12.63
2023-12-19T04:22:13.987Z,15.40
2023-12-19T04:24:41.147Z,13.90
2023-12-19T04:27:07.552Z,12.40
2023-12-19T04:29:33.953Z,14.63
2023-12-19T04:32:00.330Z,14.67
2023-12-19T04:34:26.858Z,20.83
2023-12-19T04:36:53.385Z,14.90
2023-12-19T04:39:19.867Z,13.17
2023-12-19T04:41:46.302Z,12.60
2023-12-19T04:44:12.723Z,14.87
2023-12-19T04:46:39.175Z,16.00
2023-12-19T04:49:05.859Z,14.47
2023-12-19T04:51:32.395Z,15.57
2023-12-19T04:54:00.800Z,14.93
2023-12-19T04:56:27.198Z,15.07
2023-12-19T04:58:53.581Z,13.90
2023-12-19T05:01:20.100Z,13.80
2023-12-19T05:03:46.711Z,13.23
2023-12-19T05:06:18.297Z,13.47
2023-12-19T05:08:49.186Z,15.10
2023-12-19T05:11:15.991Z,15.57
2023-12-19T05:13:42.674Z,15.27
2023-12-19T05:16:12.743Z,15.50
2023-12-19T05:18:41.577Z,15.67
2023-12-19T05:21:09.218Z,17.87
2023-12-19T05:23:36.554Z,17.10
2023-12-19T05:26:06.873Z,18.33
2023-12-19T05:28:36.687Z,17.57
2023-12-19T05:31:03.248Z,17.07
2023-12-19T05:33:30.840Z,14.70
2023-12-19T05:35:57.563Z,14.37
2023-12-19T05:38:24.019Z,14.30
2023-12-19T05:40:52.994Z,15.20
2023-12-19T05:43:19.393Z,13.77
2023-12-19T05:45:45.790Z,13.10
2023-12-19T05:48:12.265Z,14.27
2023-12-19T05:50:38.873Z,14.57
2023-12-19T05:53:05.539Z,14.60
2023-12-19T05:55:32.526Z,16.30
2023-12-19T05:57:59.001Z,16.93
2023-12-19T06:00:25.454Z,15.83
2023-12-19T06:02:52.198Z,14.93
2023-12-19T06:05:19.343Z,14.33
2023-12-19T06:07:45.773Z,14.60
2023-12-19T06:10:13.387Z,15.07
2023-12-19T06:12:40.419Z,13.60
2023-12-19T06:15:12.684Z,13.97
2023-12-19T06:17:43.542Z,14.77
2023-12-19T06:20:11.454Z,14.30
2023-12-19T06:22:38.950Z,15.10
2023-12-19T06:25:06.210Z,15.20
2023-12-19T06:27:33.957Z,13.00
2023-12-19T06:30:04.156Z,13.90
2023-12-19T06:32:37.838Z,13.40
2023-12-19T06:35:06.964Z,13.10
2023-12-19T06:37:33.354Z,13.97
2023-12-19T06:40:00.216Z,12.57
2023-12-19T06:42:26.765Z,12.67
2023-12-19T06:44:53.177Z,15.37
2023-12-19T06:47:19.607Z,15.37
2023-12-19T06:49:46.107Z,14.93
2023-12-19T06:52:12.514Z,14.60
2023-12-19T06:54:39.821Z,15.20
2023-12-19T06:57:06.599Z,15.53
2023-12-19T06:59:36.004Z,18.20
2023-12-19T07:02:02.470Z,20.37
2023-12-19T07:04:29.061Z,17.97
2023-12-19T07:06:55.846Z,19.90
2023-12-19T07:09:22.297Z,22.33
2023-12-19T07:11:48.758Z,23.57
2023-12-19T07:14:15.183Z,19.77
2023-12-19T07:16:41.661Z,20.03
2023-12-19T07:19:08.338Z,20.07
2023-12-19T07:21:36.456Z,18.67
2023-12-19T07:24:02.929Z,18.77
2023-12-19T07:26:30.769Z,20.87
2023-12-19T07:28:58.784Z,18.67
2023-12-19T07:31:29.827Z,16.70
2023-12-19T07:33:59.404Z,16.43
2023-12-19T07:36:29.564Z,17.70
2023-12-19T07:38:56.126Z,16.10
2023-12-19T07:41:24.277Z,14.90
2023-12-19T07:43:50.937Z,12.77
2023-12-19T07:46:17.355Z,13.27
2023-12-19T07:48:44.059Z,12.27
2023-12-19T07:51:19.238Z,12.27
2023-12-19T07:53:45.772Z,14.10
2023-12-19T07:56:12.204Z,19.83
2023-12-19T07:58:38.623Z,13.23
2023-12-19T08:01:05.526Z,11.77
2023-12-19T08:03:32.982Z,12.53
2023-12-19T08:05:59.679Z,13.10
2023-12-19T08:08:26.964Z,12.93
2023-12-19T08:10:53.727Z,12.87
2023-12-19T08:13:23.393Z,12.17
2023-12-19T08:15:50.783Z,12.37
2023-12-19T08:18:17.979Z,12.97
2023-12-19T08:20:44.532Z,12.70
2023-12-19T08:23:10.941Z,11.10
2023-12-19T08:25:40.076Z,11.07
2023-12-19T08:28:08.238Z,10.03
2023-12-19T08:30:35.089Z,9.83
2023-12-19T08:33:01.817Z,10.00
2023-12-19T08:35:28.443Z,10.37
2023-12-19T08:37:54.990Z,12.20
2023-12-19T08:40:21.417Z,11.60
2023-12-19T08:42:49.862Z,11.80
2023-12-19T08:45:18.006Z,10.17
2023-12-19T08:47:45.676Z,10.97
2023-12-19T08:50:14.204Z,11.77
2023-12-19T08:52:42.409Z,12.00
2023-12-19T08:55:13.016Z,12.43
2023-12-19T08:57:43.387Z,11.60
2023-12-19T09:00:17.115Z,11.60
2023-12-19T09:02:44.805Z,10.80
2023-12-19T09:05:12.322Z,10.73
2023-12-19T09:07:39.242Z,11.27
2023-12-19T09:10:06.848Z,11.70
2023-12-19T09:12:34.746Z,11.03
2023-12-19T09:15:01.576Z,11.57
2023-12-19T09:17:28.040Z,10.90
2023-12-19T09:19:56.552Z,11.67
2023-12-19T09:22:23.493Z,11.10
2023-12-19T09:24:49.991Z,11.87
2023-12-19T09:27:17.307Z,12.40
2023-12-19T09:29:44.306Z,11.30
2023-12-19T09:32:10.980Z,12.00
2023-12-19T09:34:41.381Z,11.00
2023-12-19T09:37:08.331Z,12.60
2023-12-19T09:39:34.870Z,11.70
2023-12-19T09:42:03.905Z,13.40
2023-12-19T09:44:31.256Z,11.77
2023-12-19T09:46:57.705Z,11.40
2023-12-19T09:49:26.947Z,14.73
2023-12-19T09:51:54.956Z,12.17
2023-12-19T09:54:22.665Z,13.43
2023-12-19T09:56:57.666Z,14.33
2023-12-19T09:59:24.234Z,12.70
2023-12-19T10:01:50.724Z,13.67
2023-12-19T10:04:18.394Z,13.47
2023-12-19T10:06:56.077Z,12.70
2023-12-19T10:09:23.470Z,12.20
2023-12-19T10:12:11.809Z,11.87
2023-12-19T10:14:38.449Z,12.40
2023-12-19T10:17:12.676Z,12.90
2023-12-19T10:19:39.877Z,12.90
2023-12-19T10:22:11.640Z,14.27
2023-12-19T10:24:38.292Z,13.73
2023-12-19T10:27:09.525Z,13.03
2023-12-19T10:29:39.979Z,11.90
2023-12-19T10:32:20.736Z,13.30
2023-12-19T10:34:48.386Z,12.03
2023-12-19T10:37:19.179Z,12.33
2023-12-19T10:39:45.753Z,11.90
2023-12-19T10:42:12.986Z,11.70
2023-12-19T10:44:43.543Z,12.63
2023-12-19T10:47:11.828Z,10.30
2023-12-19T10:49:39.661Z,10.47
2023-12-19T10:52:09.518Z,8.80
2023-12-19T10:54:37.296Z,8.70
2023-12-19T10:57:17.042Z,7.07
2023-12-19T11:00:14.881Z,7.27
2023-12-19T11:02:47.431Z,7.43
2023-12-19T11:05:37.889Z,6.90
2023-12-19T11:08:09.301Z,7.40
2023-12-19T11:10:39.804Z,6.97
2023-12-19T11:13:06.401Z,6.37
2023-12-19T11:15:35.741Z,7.10
2023-12-19T11:18:09.738Z,6.80
2023-12-19T11:20:43.515Z,6.70
2023-12-19T11:23:28.624Z,5.73
2023-12-19T11:26:26.211Z,5.93
2023-12-19T11:28:52.630Z,6.23
2023-12-19T11:31:28.810Z,5.73
2023-12-19T11:33:55.557Z,6.53
2023-12-19T11:36:22.147Z,7.10
2023-12-19T11:38:50.534Z,6.30
2023-12-19T11:41:39.931Z,7.30
2023-12-19T11:44:06.448Z,5.70
2023-12-19T11:46:32.825Z,6.00
2023-12-19T11:48:59.547Z,6.97
2023-12-19T11:51:51.289Z,6.27
2023-12-19T11:54:19.111Z,6.00
2023-12-19T11:56:45.860Z,6.03
2023-12-19T11:59:12.856Z,5.00
2023-12-19T12:01:43.417Z,6.33
2023-12-19T12:04:13.231Z,6.00
2023-12-19T12:06:40.370Z,5.83
2023-12-19T12:09:07.129Z,5.40
2023-12-19T12:11:59.722Z,6.63
2023-12-19T12:14:28.749Z,6.30
2023-12-19T12:16:55.160Z,6.17
2023-12-19T12:19:24.450Z,6.80
2023-12-19T12:21:52.598Z,5.77
2023-12-19T12:24:28.551Z,6.87
2023-12-19T12:27:10.583Z,6.10
2023-12-19T12:29:38.430Z,7.70
2023-12-19T12:32:06.902Z,7.33
2023-12-19T12:34:33.784Z,6.63
2023-12-19T12:37:00.425Z,6.50
2023-12-19T12:39:27.208Z,5.87
2023-12-19T12:42:07.526Z,5.83
2023-12-19T12:44:35.075Z,5.93
2023-12-19T12:47:01.624Z,6.40
2023-12-19T12:49:30.370Z,6.07
2023-12-19T12:52:00.683Z,6.20
2023-12-19T12:54:27.344Z,5.37
2023-12-19T12:56:53.805Z,7.10
2023-12-19T12:59:23.939Z,6.50
2023-12-19T13:01:50.750Z,6.40
2023-12-19T13:04:18.653Z,6.40
2023-12-19T13:06:46.880Z,6.00
2023-12-19T13:09:15.159Z,6.00
2023-12-19T13:11:43.829Z,6.17
2023-12-19T13:14:10.300Z,6.00
2023-12-19T13:16:36.737Z,5.80
2023-12-19T13:19:03.358Z,5.90
2023-12-19T13:21:29.895Z,6.40
2023-12-19T13:23:57.426Z,6.30
2023-12-19T13:26:27.504Z,5.63
2023-12-19T13:28:54.374Z,6.13
2023-12-19T13:31:26.163Z,6.30
2023-12-19T13:33:53.597Z,6.13
2023-12-19T13:36:23.935Z,6.60
2023-12-19T13:38:50.452Z,6.93
2023-12-19T13:41:17.547Z,7.03
2023-12-19T13:43:44.665Z,6.37
2023-12-19T13:46:11.677Z,5.50
2023-12-19T13:48:40.677Z,5.90
2023-12-19T13:51:09.295Z,5.00
2023-12-19T13:53:35.714Z,5.33
2023-12-19T13:56:02.540Z,5.50
2023-12-19T13:58:28.983Z,5.43
2023-12-19T14:00:56.993Z,6.03
2023-12-19T14:03:23.822Z,6.20
2023-12-19T14:05:50.368Z,5.90
2023-12-19T14:08:19.171Z,5.97
2023-12-19T14:10:45.603Z,6.00
2023-12-19T14:13:12.127Z,5.50
2023-12-19T14:15:40.398Z,6.23
2023-12-19T14:18:07.146Z,5.83
2023-12-19T14:20:33.617Z,5.97
2023-12-19T14:23:01.940Z,5.80
2023-12-19T14:25:28.834Z,6.60
2023-12-19T14:27:55.395Z,6.20
2023-12-19T14:30:21.977Z,5.80
2023-12-19T14:32:48.438Z,5.60
2023-12-19T14:35:17.225Z,6.17
2023-12-19T14:37:44.073Z,5.57
2023-12-19T14:40:13.369Z,6.40
2023-12-19T14:42:39.911Z,6.60
2023-12-19T14:45:06.985Z,6.53
2023-12-19T14:47:33.477Z,6.43
2023-12-19T14:50:00.138Z,6.53
2023-12-19T14:52:27.008Z,6.27
2023-12-19T14:54:53.797Z,6.00
2023-12-19T14:57:20.315Z,7.03
2023-12-19T14:59:46.738Z,6.87
2023-12-19T15:02:13.112Z,7.03
2023-12-19T15:04:39.614Z,6.40
2023-12-19T15:07:06.396Z,6.10
2023-12-19T15:09:34.522Z,7.03
2023-12-19T15:12:01.345Z,6.67
2023-12-19T15:14:27.788Z,6.97
2023-12-19T15:16:54.995Z,6.90
2023-12-19T15:19:22.136Z,5.90
2023-12-19T15:21:49.180Z,7.43
2023-12-19T15:24:15.667Z,7.03
2023-12-19T15:26:43.512Z,7.80
2023-12-19T15:29:13.452Z,7.67
2023-12-19T15:31:45.097Z,7.83
2023-12-19T15:34:12.340Z,7.17
2023-12-19T15:36:39.397Z,8.00
2023-12-19T15:39:06.014Z,9.47
2023-12-19T15:41:32.519Z,9.77
2023-12-19T15:44:07.915Z,10.73
2023-12-19T15:46:40.796Z,8.50
2023-12-19T15:49:09.790Z,8.57
2023-12-19T15:51:36.578Z,8.80
2023-12-19T15:54:04.280Z,8.40
2023-12-19T15:56:36.099Z,8.43
2023-12-19T15:59:05.382Z,8.57
2023-12-19T16:01:32.686Z,7.70
2023-12-19T16:03:59.780Z,8.97
2023-12-19T16:06:27.302Z,9.00
2023-12-19T16:08:54.576Z,9.70
2023-12-19T16:11:24.572Z,9.43
2023-12-19T16:13:52.542Z,9.70
2023-12-19T16:16:19.079Z,9.37
2023-12-19T16:18:46.907Z,9.80
2023-12-19T16:21:15.625Z,8.17
2023-12-19T16:23:53.423Z,8.00
2023-12-19T16:26:27.836Z,8.70
2023-12-19T16:28:54.334Z,9.03
2023-12-19T16:31:20.889Z,9.33
2023-12-19T16:33:47.501Z,8.50
2023-12-19T16:36:15.066Z,8.60
2023-12-19T16:38:43.892Z,8.87
2023-12-19T16:41:11.151Z,8.53
2023-12-19T16:43:38.315Z,8.53
2023-12-19T16:46:06.810Z,9.17
2023-12-19T16:48:33.683Z,8.33
2023-12-19T16:51:01.054Z,8.00
2023-12-19T16:53:27.684Z,8.20
2023-12-19T16:55:54.214Z,8.40
2023-12-19T16:58:29.985Z,8.00
2023-12-19T17:01:02.758Z,7.53
2023-12-19T17:03:29.377Z,8.30
2023-12-19T17:05:56.188Z,9.20
2023-12-19T17:08:23.051Z,8.20
2023-12-19T17:10:49.821Z,8.00
2023-12-19T17:13:16.215Z,8.47
2023-12-19T17:15:45.226Z,8.30
2023-12-19T17:18:15.033Z,9.33
2023-12-19T17:20:41.658Z,8.90
2023-12-19T17:23:08.240Z,9.43
2023-12-19T17:25:34.726Z,8.30
2023-12-19T17:28:01.247Z,9.37
2023-12-19T17:30:27.701Z,8.77
2023-12-19T17:32:54.179Z,9.43
2023-12-19T17:35:20.885Z,9.37
2023-12-19T17:37:47.336Z,7.93
2023-12-19T17:40:14.001Z,7.93
2023-12-19T17:42:40.541Z,7.80
2023-12-19T17:45:08.459Z,8.87
2023-12-19T17:47:34.921Z,8.23
2023-12-19T17:50:01.612Z,8.57
2023-12-19T17:52:28.816Z,8.73
2023-12-19T17:54:55.758Z,7.90
2023-12-19T17:57:22.259Z,8.53
2023-12-19T17:59:48.698Z,9.07
2023-12-19T18:02:15.104Z,9.67
2023-12-19T18:04:41.590Z,8.67
2023-12-19T18:07:10.781Z,10.63
2023-12-19T18:09:37.256Z,10.60
2023-12-19T18:12:03.943Z,10.40
2023-12-19T18:14:30.366Z,9.90
2023-12-19T18:17:03.783Z,9.40
2023-12-19T18:19:31.996Z,9.73
2023-12-19T18:21:58.731Z,9.80
2023-12-19T18:24:25.570Z,9.10
2023-12-19T18:26:52.683Z,10.47
2023-12-19T18:29:20.384Z,9.60
2023-12-19T18:31:47.782Z,10.03
2023-12-19T18:34:15.465Z,8.93
2023-12-19T18:36:42.300Z,9.30
2023-12-19T18:39:08.741Z,10.43
2023-12-19T18:41:35.203Z,9.57
2023-12-19T18:44:01.774Z,9.30
2023-12-19T18:46:28.281Z,9.07
2023-12-19T18:48:55.572Z,9.40
2023-12-19T18:51:22.687Z,8.30
2023-12-19T18:53:49.522Z,7.90
2023-12-19T18:56:17.013Z,7.80
2023-12-19T18:58:44.899Z,7.73
2023-12-19T19:01:12.433Z,7.73
2023-12-19T19:03:41.362Z,7.57
2023-12-19T19:06:08.454Z,6.53
2023-12-19T19:08:35.610Z,5.93
2023-12-19T19:11:02.259Z,7.20
2023-12-19T19:13:29.098Z,7.40
2023-12-19T19:15:55.778Z,8.13
2023-12-19T19:18:24.385Z,8.47
2023-12-19T19:20:51.499Z,8.30
2023-12-19T19:23:18.202Z,8.43
2023-12-19T19:25:46.029Z,9.33
2023-12-19T19:28:13.657Z,10.33
2023-12-19T19:30:44.582Z,9.57
2023-12-19T19:33:11.745Z,8.70
2023-12-19T19:35:38.601Z,8.17
2023-12-19T19:38:05.366Z,8.93
2023-12-19T19:40:38.970Z,9.40
2023-12-19T19:43:11.074Z,8.13
2023-12-19T19:45:37.991Z,8.17
2023-12-19T19:48:05.170Z,7.23
2023-12-19T19:50:31.731Z,6.83
2023-12-19T19:52:58.666Z,7.80
2023-12-19T19:55:25.872Z,7.23
2023-12-19T19:57:53.465Z,6.63
2023-12-19T20:00:21.675Z,6.90
2023-12-19T20:02:48.281Z,8.43
2023-12-19T20:05:15.034Z,7.00
2023-12-19T20:07:41.680Z,7.60
2023-12-19T20:10:08.733Z,7.40
2023-12-19T20:12:35.328Z,7.30
2023-12-19T20:15:02.105Z,7.80
2023-12-19T20:17:28.665Z,7.80
2023-12-19T20:19:55.410Z,7.33
2023-12-19T20:22:22.081Z,7.23
2023-12-19T20:24:51.073Z,6.70
2023-12-19T20:27:17.828Z,6.43
2023-12-19T20:29:45.272Z,6.57
2023-12-19T20:32:12.258Z,6.70
2023-12-19T20:34:38.998Z,6.50
2023-12-19T20:37:05.683Z,7.27
2023-12-19T20:39:32.187Z,6.27
2023-12-19T20:41:58.743Z,6.77
2023-12-19T20:44:25.533Z,7.07
2023-12-19T20:46:53.305Z,7.33
2023-12-19T20:49:19.855Z,7.20
2023-12-19T20:51:48.954Z,6.13
2023-12-19T20:54:19.859Z,6.80
2023-12-19T20:56:48.022Z,6.00
2023-12-19T20:59:15.915Z,5.57
2023-12-19T21:01:42.600Z,5.83
2023-12-19T21:04:09.386Z,5.97
2023-12-19T21:06:35.927Z,5.63
2023-12-19T21:09:02.737Z,6.37
2023-12-19T21:11:29.645Z,6.60
2023-12-19T21:13:56.476Z,6.73
2023-12-19T21:16:22.987Z,6.57
2023-12-19T21:18:49.516Z,5.93
2023-12-19T21:21:16.044Z,7.77
2023-12-19T21:23:42.570Z,6.23
2023-12-19T21:26:09.210Z,6.23
2023-12-19T21:28:35.709Z,6.67
2023-12-19T21:31:02.441Z,6.03
2023-12-19T21:33:30.269Z,6.47
2023-12-19T21:35:56.948Z,6.70
2023-12-19T21:38:23.359Z,6.10
2023-12-19T21:40:49.894Z,6.27
2023-12-19T21:43:16.896Z,6.40
2023-12-19T21:45:43.485Z,6.50
2023-12-19T21:48:11.759Z,5.83
2023-12-19T21:50:38.260Z,6.70
2023-12-19T21:53:04.762Z,7.10
2023-12-19T21:55:31.235Z,5.97
2023-12-19T21:57:57.773Z,5.63
2023-12-19T22:00:24.210Z,6.03
2023-12-19T22:02:50.662Z,5.57
2023-12-19T22:05:17.093Z,5.80
2023-12-19T22:07:43.701Z,6.30
2023-12-19T22:10:10.530Z,5.40
2023-12-19T22:12:37.469Z,5.60
2023-12-19T22:15:05.778Z,5.77
2023-12-19T22:17:32.362Z,5.30
2023-12-19T22:19:58.935Z,5.07
2023-12-19T22:22:25.973Z,5.87
2023-12-19T22:24:52.658Z,5.03
2023-12-19T22:27:19.517Z,5.50
2023-12-19T22:29:46.674Z,5.17
2023-12-19T22:32:13.242Z,4.87
2023-12-19T22:34:40.615Z,4.97
2023-12-19T22:37:07.373Z,4.57
2023-12-19T22:39:33.950Z,6.23
2023-12-19T22:42:03.250Z,6.97
2023-12-19T22:44:29.707Z,7.40
2023-12-19T22:46:56.285Z,7.30
2023-12-19T22:49:23.134Z,8.03
2023-12-19T22:51:49.727Z,7.50
2023-12-19T22:54:16.268Z,7.03
2023-12-19T22:56:42.674Z,7.00
2023-12-19T22:59:09.316Z,6.93
2023-12-19T23:01:45.817Z,7.10
2023-12-19T23:04:17.239Z,7.10
2023-12-19T23:06:43.828Z,7.00
2023-12-19T23:09:10.592Z,6.57
2023-12-19T23:11:37.140Z,6.37
2023-12-19T23:14:03.892Z,6.37
2023-12-19T23:16:30.659Z,6.23
2023-12-19T23:18:57.972Z,6.70
2023-12-19T23:21:25.679Z,6.90
2023-12-19T23:23:53.998Z,7.30
2023-12-19T23:26:21.581Z,7.10
2023-12-19T23:28:48.068Z,7.70
2023-12-19T23:31:21.892Z,8.30
2023-12-19T23:33:52.071Z,7.67
2023-12-19T23:36:18.772Z,7.70
2023-12-19T23:38:45.552Z,8.63
2023-12-19T23:41:16.672Z,9.20
2023-12-19T23:43:43.084Z,7.67
2023-12-19T23:46:21.417Z,7.73
2023-12-19T23:48:49.011Z,7.20
2023-12-19T23:51:16.738Z,7.70
2023-12-19T23:53:43.534Z,9.03
2023-12-19T23:56:10.388Z,7.97
2023-12-19T23:58:37.171Z,8.23
